Monday, December 18, 2017, 10:22 AM CST
Back to Local

KOJC, Olathe Johnson Co Executive

Location: Olathe, KS, United States Lat: 38.833
Local Time: 10:22 AM CST (16:22 GMT) Lon: -94.733
Time Zone: US/Central Elev: 1095 ft

Show me the last for .
Show Decoded

2017-12-18 09:53 METAR KOJC 181553Z 24008KT 8SM CLR 05/02 A3009 RMK AO2 SLP194 T00500022 =
2017-12-18 08:53 METAR KOJC 181453Z 24008KT 5SM BR SCT005 03/03 A3009 RMK AO2 SLP193 T00330028
                 51016 =
2017-12-18 07:53 METAR KOJC 181353Z 24007KT 4SM BR OVC006 03/03 A3007 RMK AO2 SLP190 T00330028 =
2017-12-18 06:53 METAR KOJC 181253Z 24008KT 7SM OVC009 04/04 A3006 RMK AO2 CIG 007V012 SLP184
                 T00440039 =
2017-12-18 06:44 METAR KOJC 181244Z AUTO 26009KT 7SM OVC009 05/04 A3006 RMK AO2 CIG 007V011
                 T00500039 =
2017-12-18 05:53 METAR KOJC 181153Z AUTO 22006KT 7SM FEW007 OVC014 06/06 A3004 RMK AO2 SLP175
                 70014 T00560056 10061 20050 53003 =
2017-12-18 05:46 METAR KOJC 181146Z AUTO 22006KT 7SM FEW009 OVC014 06/06 A3004 RMK AO2 T00560056
                 =
2017-12-18 04:53 METAR KOJC 181053Z AUTO 23004KT 6SM BR OVC017 06/06 A3003 RMK AO2 SLP173
                 T00560056 =
2017-12-18 04:37 METAR KOJC 181037Z AUTO 23005KT 6SM BR BKN017 OVC030 06/06 A3003 RMK AO2
                 T00560056 =
2017-12-18 04:17 METAR KOJC 181017Z AUTO 22005KT 6SM BR OVC030 06/06 A3003 RMK AO2 T00560056 =
2017-12-18 03:53 METAR KOJC 180953Z AUTO 23005KT 7SM OVC028 06/06 A3003 RMK AO2 SLP171 T00610056
                 =
2017-12-18 02:53 METAR KOJC 180853Z AUTO 23003KT 7SM OVC028 06/06 A3003 RMK AO2 SLP170 T00610056
                 55002 =
2017-12-18 02:40 METAR KOJC 180840Z AUTO 23004KT 8SM OVC029 06/06 A3002 RMK AO2 T00610056 =
2017-12-18 02:11 METAR KOJC 180811Z AUTO 23005KT 8SM SCT023 OVC031 06/06 A3002 RMK AO2 T00560056
                 =
2017-12-18 01:53 METAR KOJC 180753Z AUTO 23006KT 7SM OVC021 06/06 A3002 RMK AO2 SLP168 T00610056
                 =
2017-12-18 00:53 METAR KOJC 180653Z AUTO 23005KT 7SM OVC019 06/06 A3003 RMK AO2 SLP173 T00560056
                 =
2017-12-18 00:09 METAR KOJC 180609Z AUTO 22005KT 6SM BR SCT009 OVC020 06/06 A3003 RMK AO2
                 T00560056 =
2017-12-17 23:53 METAR KOJC 180553Z AUTO 22004KT 6SM BR BKN009 OVC022 05/05 A3003 RMK AO2 SLP174
                 T00500050 10067 20039 400890039 50001 =
2017-12-17 23:24 METAR KOJC 180524Z AUTO 21004KT 5SM BR BKN008 OVC019 05/05 A3004 RMK AO2
                 T00500050 =
2017-12-17 22:53 METAR KOJC 180453Z AUTO 00000KT 3SM BR FEW007 OVC019 04/04 A3004 RMK AO2 SLP176
                 T00440044 =
2017-12-17 22:45 METAR KOJC 180445Z AUTO 19003KT 3SM BR FEW007 OVC019 04/04 A3004 RMK AO2
                 T00440044 =
2017-12-17 22:15 METAR KOJC 180415Z AUTO 21003KT 3SM BR OVC017 04/04 A3003 RMK AO2 T00390039 =
2017-12-17 22:02 METAR KOJC 180402Z AUTO 20003KT 2 1/2SM BR BKN017 04/04 A3004 RMK AO2 T00390039
                 =
2017-12-17 21:53 METAR KOJC 180353Z AUTO 21003KT 2 1/2SM BR SCT017 04/04 A3004 RMK AO2 SLP175
                 T00390039 =
2017-12-17 20:53 METAR KOJC 180253Z 20004KT 5SM BR CLR 04/04 A3003 RMK AO2 SLP174 T00390039 51008
                 =
2017-12-17 19:53 METAR KOJC 180153Z 18004KT 7SM FEW037 04/04 A3002 RMK AO2 SLP169 T00440044 =
2017-12-17 18:53 METAR KOJC 180053Z 20005KT 9SM OVC035 07/06 A3002 RMK AO2 SLP171 T00670056 =
2017-12-17 18:22 METAR KOJC 180022Z 20004KT 9SM SCT025 OVC036 07/06 A3001 RMK AO2 T00670056 =
2017-12-17 18:15 METAR KOJC 180015Z 19005KT 9SM BKN025 OVC036 07/06 A3001 RMK AO2 T00670061 =
2017-12-17 17:53 METAR KOJC 172353Z 20004KT 9SM OVC036 07/06 A3001 RMK AO2 SLP164 T00670061 10078
                 20067 53009 =
2017-12-17 16:53 METAR KOJC 172253Z 19005KT 8SM OVC035 07/06 A2999 RMK AO2 SLP159 T00720061 =
2017-12-17 16:19 METAR KOJC 172219Z 19005KT 8SM OVC031 08/06 A2999 RMK AO2 T00780061 =
2017-12-17 15:53 METAR KOJC 172153Z 19005KT 9SM SCT022 OVC029 08/06 A2999 RMK AO2 SLP158
                 T00780061 =
2017-12-17 14:53 METAR KOJC 172053Z 20004KT 8SM OVC025 08/06 A2998 RMK AO2 SLP154 T00780061 55007
                 =
2017-12-17 13:53 METAR KOJC 171953Z 23006KT 9SM BKN016 OVC021 08/06 A2998 RMK AO2 SLP153
                 T00780061 =
2017-12-17 12:53 METAR KOJC 171853Z 23005KT 10SM BKN015 OVC020 08/06 A2997 RMK AO2 SLP150
                 T00780056 =
2017-12-17 12:42 METAR KOJC 171842Z 24004KT 10SM OVC016 08/06 A2998 RMK AO2 T00780061 =
2017-12-17 12:03 METAR KOJC 171803Z 25006KT 10SM OVC010 07/06 A3000 RMK AO2 CIG 007V012 T00720061
                 =
2017-12-17 11:53 METAR KOJC 171753Z 26007KT 10SM BKN008 OVC012 07/06 A3000 RMK AO2 SLP162 60014
                 T00720061 10072 20050 58010 =
2017-12-17 10:53 METAR KOJC 171653Z 24007KT 10SM OVC005 07/06 A3003 RMK AO2 CIG 004V008 SLP171
                 T00670061 =
2017-12-17 10:24 METAR KOJC 171624Z 22006KT 9SM OVC005 06/06 A3003 RMK AO2 T00610061 =

Support USWX by starting your Amazon purchase here.